Harp Township, Illinois
Current Conditions -  °F | °C
As of 6:55 PM on Tuesday 21 Oct 2014 (Local Time) from KAAA Reporting Station
Clear Clear  
Wind Chill: 50°   Ceiling: Unl
Heat Index: 50°   Visibility: 10mi
Dew Point: 39°   Wind: 5mph
Humidity: 66%   Direction: 40°NE
Pressure: 30.17"   Gusts: NA
Location:  40.143°N, 88.9637°W
Report Text: KAAA 212355Z AUTO 04004KT 10SM CLR 10/04 A3017 RMK AO2 T01010041 10166 20101
Loading
Personal Weather Stations






























Interactive Weather Map
Tropical Storm Tracking
New forecast layout! Learn more

10-Day Weather Forecast

Advertisements
Track Severe Weather on mobile